Main page
METAR-TAF:

METAR-TAF

Airports :

Cachimbo Airport

Cachimbo, Pará, Brazil

latitude: 09-20S, longitude: 054-57W, elevation: 536 m

Current weather observation

The report was made 44 minutes ago, at 16:00 UTC
Wind 8 kt from the North, varying between North/Northwest and North/Northeast
Temperature 23°C
Humidity 89%
Pressure 1015 hPa
Visibility 10 km or more
Few clouds at a height of 700 ft
Broken clouds at a height of 1500 ft
Overcast at a height of 8000 ft

METAR: SBCC 211600Z 36008KT 330V030 9999 FEW007 BKN015 OVC080 23/21 Q1015

Time: 13:44 (16:44 UTC)


TAF: missing

Weather observations and forecasts of more than 4000 airports (METAR and TAF reports).

The available stations are represented by yellow and red dots on the map.

Hover mouse over dot to see the name of the station.

Then click to see weather observations and forecasts.

To change the map : click on the green buttons with a black cross to zoom in, on the green button with a dash to zoom out, or on the green arrows for adjacent maps.


METAR-TAF: